Tairyu Maru — JD3747 — position and weather

sailwx.info

Track history (hours):
 
Tides and Currents Weather Stations Pressure Air Temp Water Temp Dewpoint Dewpoint Depression Visibility Wind Speed Wind Dir Waves Ship Positions

Tairyu Maru

Last reported at 2017-Nov-05 14:31 UTC. Time now 2017-Nov-20 12:05 UTC.
Position N 35°22' E 139°54'.
Warning: this ship's position is 14 days out of date.

Length 75 m; draft 4.4 m.

Type: Cargo ship. MMSI: 431005756.

Date/timePositionNaut miles runAvg speedWind from/ knotsBaromVisibWave heightAir tempDewpointWater temp
2017-Nov-05 14:31N 35°22' E 139°54'0 2.4
2017-Nov-05 14:30N 35°22' E 139°53'2 5.1
2017-Nov-05 14:00N 35°23' E 139°51'0 0.0
2017-Nov-05 13:30N 35°23' E 139°51'0 0.0
2017-Nov-05 13:00N 35°23' E 139°51'0 0.1
2017-Nov-05 12:30N 35°23' E 139°51'0 0.0
2017-Nov-05 12:00N 35°23' E 139°51'0 0.0
2017-Nov-05 11:30N 35°23' E 139°51'0 0.0
2017-Nov-05 11:00N 35°23' E 139°51'0 0.0
2017-Nov-05 10:30N 35°23' E 139°51'0 0.0
2017-Nov-05 10:00N 35°23' E 139°51'0 0.8
2017-Nov-05 09:30N 35°24' E 139°51'712.5
2017-Nov-05 08:58N 35°29' E 139°56'  
2017-Nov-02 23:07N 35°33' E 139°56'212.0
2017-Nov-02 22:58N 35°31' E 139°55'511.6
2017-Nov-02 22:30N 35°27' E 139°50'611.0
2017-Nov-02 22:00N 35°23' E 139°46'510.2
2017-Nov-02 21:30N 35°18' E 139°44'510.5
2017-Nov-02 21:00N 35°13' E 139°47'611.5
2017-Nov-02 20:30N 35°08' E 139°46'611.8
2017-Nov-02 20:00N 35°03' E 139°41'612.3
2017-Nov-02 19:30N 34°59' E 139°35'611.8
2017-Nov-02 18:59N 34°56' E 139°29'22810.2
2017-Nov-01 20:30N 34°01' E 135°00'712.9
2017-Nov-01 19:56N 34°08' E 134°59'613.1
2017-Nov-01 19:30N 34°14' E 134°59'1411.6
2017-Nov-01 18:18N 34°26' E 135°06'20 0.9
2017-Oct-31 21:30N 34°35' E 135°27'0 0.0
2017-Oct-31 06:11N 34°35' E 135°27'0 1.4
2017-Oct-31 05:59N 34°35' E 135°27'0 0.0
2017-Oct-31 05:30N 34°35' E 135°27'2 4.6
2017-Oct-31 05:00N 34°36' E 135°24'4 8.5
2017-Oct-31 04:30N 34°32' E 135°24'1 0.2
2017-Oct-30 23:07N 34°31' E 135°24'0 0.0
2017-Oct-30 22:55N 34°31' E 135°24'0 0.0
2017-Oct-30 22:26N 34°31' E 135°24'1 2.2
2017-Oct-30 21:55N 34°32' E 135°24'1 1.7
2017-Oct-30 21:30N 34°32' E 135°23'0 0.1
2017-Oct-30 20:59N 34°32' E 135°23'0 0.0
2017-Oct-30 20:30N 34°32' E 135°23'0 0.0
2017-Oct-30 20:00N 34°32' E 135°23'0 0.0
2017-Oct-30 19:30N 34°32' E 135°23'0 0.0
2017-Oct-30 19:00N 34°32' E 135°23'0 0.0
2017-Oct-30 18:30N 34°32' E 135°23'0 0.0
2017-Oct-30 18:00N 34°32' E 135°23'0 0.0
2017-Oct-30 17:30N 34°32' E 135°23'0 0.0
2017-Oct-30 16:58N 34°32' E 135°23'0 0.1
2017-Oct-30 16:30N 34°32' E 135°23'0 0.0
2017-Oct-30 16:00N 34°32' E 135°23'5 9.9
2017-Oct-30 15:30N 34°33' E 135°17'713.0
2017-Oct-30 15:00N 34°34' E 135°10'714.5
2017-Oct-30 14:30N 34°37' E 135°01'  
2017-Oct-27 05:14N 34°37' E 134°58'414.5
2017-Oct-27 04:58N 34°36' E 135°03'613.0
2017-Oct-27 04:30N 34°36' E 135°10'613.1
2017-Oct-27 04:00N 34°36' E 135°18'611.6
2017-Oct-27 03:29N 34°36' E 135°25'1 0.2
2017-Oct-26 22:49N 34°35' E 135°26'0 1.2
2017-Oct-26 22:24N 34°35' E 135°27'0 0.0
2017-Oct-26 21:59N 34°35' E 135°27'0 0.0
2017-Oct-26 21:30N 34°35' E 135°27'0 0.0
2017-Oct-26 20:59N 34°35' E 135°27'0 0.0
2017-Oct-26 20:28N 34°35' E 135°27'0 0.0
2017-Oct-26 20:00N 34°35' E 135°27'0 0.0
2017-Oct-26 19:30N 34°35' E 135°27'0 0.0
2017-Oct-26 18:58N 34°35' E 135°27'0 0.0
2017-Oct-26 18:30N 34°35' E 135°27'0 0.0
2017-Oct-26 18:00N 34°35' E 135°27'0 0.0
2017-Oct-26 17:30N 34°35' E 135°27'0 0.0
2017-Oct-26 17:00N 34°35' E 135°27'0 0.0
2017-Oct-26 16:30N 34°35' E 135°27'0 0.0
2017-Oct-26 16:00N 34°35' E 135°27'0 0.0
2017-Oct-26 15:30N 34°35' E 135°27'0 0.0
2017-Oct-26 14:59N 34°35' E 135°27'  
Track history (hours):
 
Tides and Currents Weather Stations Pressure Air Temp Water Temp Dewpoint Dewpoint Depression Visibility Wind Speed Wind Dir Waves Ship Positions

Tairyu Maru

Last reported at 2017-Nov-05 14:31 UTC. Time now 2017-Nov-20 12:05 UTC.
Position N 35°22' E 139°54'.
Warning: this ship's position is 14 days out of date.

Length 75 m; draft 4.4 m.

Type: Cargo ship. MMSI: 431005756.

Date/timePositionNaut miles runAvg speedWind from/ knotsBaromVisibWave heightAir tempDewpointWater temp
2017-Nov-05 14:31N 35°22' E 139°54'0 2.4
2017-Nov-05 14:30N 35°22' E 139°53'2 5.1
2017-Nov-05 14:00N 35°23' E 139°51'0 0.0
2017-Nov-05 13:30N 35°23' E 139°51'0 0.0
2017-Nov-05 13:00N 35°23' E 139°51'0 0.1
2017-Nov-05 12:30N 35°23' E 139°51'0 0.0
2017-Nov-05 12:00N 35°23' E 139°51'0 0.0
2017-Nov-05 11:30N 35°23' E 139°51'0 0.0
2017-Nov-05 11:00N 35°23' E 139°51'0 0.0
2017-Nov-05 10:30N 35°23' E 139°51'0 0.0
2017-Nov-05 10:00N 35°23' E 139°51'0 0.8
2017-Nov-05 09:30N 35°24' E 139°51'712.5
2017-Nov-05 08:58N 35°29' E 139°56'  
2017-Nov-02 23:07N 35°33' E 139°56'212.0
2017-Nov-02 22:58N 35°31' E 139°55'511.6
2017-Nov-02 22:30N 35°27' E 139°50'611.0
2017-Nov-02 22:00N 35°23' E 139°46'510.2
2017-Nov-02 21:30N 35°18' E 139°44'510.5
2017-Nov-02 21:00N 35°13' E 139°47'611.5
2017-Nov-02 20:30N 35°08' E 139°46'611.8
2017-Nov-02 20:00N 35°03' E 139°41'612.3
2017-Nov-02 19:30N 34°59' E 139°35'611.8
2017-Nov-02 18:59N 34°56' E 139°29'22810.2
2017-Nov-01 20:30N 34°01' E 135°00'712.9
2017-Nov-01 19:56N 34°08' E 134°59'613.1
2017-Nov-01 19:30N 34°14' E 134°59'1411.6
2017-Nov-01 18:18N 34°26' E 135°06'20 0.9
2017-Oct-31 21:30N 34°35' E 135°27'0 0.0
2017-Oct-31 06:11N 34°35' E 135°27'0 1.4
2017-Oct-31 05:59N 34°35' E 135°27'0 0.0
2017-Oct-31 05:30N 34°35' E 135°27'2 4.6
2017-Oct-31 05:00N 34°36' E 135°24'4 8.5
2017-Oct-31 04:30N 34°32' E 135°24'1 0.2
2017-Oct-30 23:07N 34°31' E 135°24'0 0.0
2017-Oct-30 22:55N 34°31' E 135°24'0 0.0
2017-Oct-30 22:26N 34°31' E 135°24'1 2.2
2017-Oct-30 21:55N 34°32' E 135°24'1 1.7
2017-Oct-30 21:30N 34°32' E 135°23'0 0.1
2017-Oct-30 20:59N 34°32' E 135°23'0 0.0
2017-Oct-30 20:30N 34°32' E 135°23'0 0.0
2017-Oct-30 20:00N 34°32' E 135°23'0 0.0
2017-Oct-30 19:30N 34°32' E 135°23'0 0.0
2017-Oct-30 19:00N 34°32' E 135°23'0 0.0
2017-Oct-30 18:30N 34°32' E 135°23'0 0.0
2017-Oct-30 18:00N 34°32' E 135°23'0 0.0
2017-Oct-30 17:30N 34°32' E 135°23'0 0.0
2017-Oct-30 16:58N 34°32' E 135°23'0 0.1
2017-Oct-30 16:30N 34°32' E 135°23'0 0.0
2017-Oct-30 16:00N 34°32' E 135°23'5 9.9
2017-Oct-30 15:30N 34°33' E 135°17'713.0
2017-Oct-30 15:00N 34°34' E 135°10'714.5
2017-Oct-30 14:30N 34°37' E 135°01'  
2017-Oct-27 05:14N 34°37' E 134°58'414.5
2017-Oct-27 04:58N 34°36' E 135°03'613.0
2017-Oct-27 04:30N 34°36' E 135°10'613.1
2017-Oct-27 04:00N 34°36' E 135°18'611.6
2017-Oct-27 03:29N 34°36' E 135°25'1 0.2
2017-Oct-26 22:49N 34°35' E 135°26'0 1.2
2017-Oct-26 22:24N 34°35' E 135°27'0 0.0
2017-Oct-26 21:59N 34°35' E 135°27'0 0.0
2017-Oct-26 21:30N 34°35' E 135°27'0 0.0
2017-Oct-26 20:59N 34°35' E 135°27'0 0.0
2017-Oct-26 20:28N 34°35' E 135°27'0 0.0
2017-Oct-26 20:00N 34°35' E 135°27'0 0.0
2017-Oct-26 19:30N 34°35' E 135°27'0 0.0
2017-Oct-26 18:58N 34°35' E 135°27'0 0.0
2017-Oct-26 18:30N 34°35' E 135°27'0 0.0
2017-Oct-26 18:00N 34°35' E 135°27'0 0.0
2017-Oct-26 17:30N 34°35' E 135°27'0 0.0
2017-Oct-26 17:00N 34°35' E 135°27'0 0.0
2017-Oct-26 16:30N 34°35' E 135°27'0 0.0
2017-Oct-26 16:00N 34°35' E 135°27'0 0.0
2017-Oct-26 15:30N 34°35' E 135°27'0 0.0
2017-Oct-26 14:59N 34°35' E 135°27'  

Dump ship's entire track history